TimeAKDT,TemperatureF,Dew PointF,Humidity,Sea Level PressureIn,VisibilityMPH,Wind Direction,Wind SpeedMPH,Gust SpeedMPH,PrecipitationIn,Events,Conditions,WindDirDegrees,DateUTC
12:53 AM,39.0,35.1,86,30.24,10.0,Calm,Calm,-,N/A,,Clear,0,2013-05-09 08:53:00
1:53 AM,37.0,33.1,86,30.25,10.0,Calm,Calm,-,N/A,,Clear,0,2013-05-09 09:53:00
2:53 AM,37.9,34.0,86,30.25,10.0,Calm,Calm,-,N/A,,Clear,0,2013-05-09 10:53:00
3:53 AM,36.0,34.0,93,30.25,10.0,Calm,Calm,-,N/A,,Partly Cloudy,0,2013-05-09 11:53:00
4:53 AM,34.0,30.9,89,30.27,10.0,Calm,Calm,-,N/A,,Partly Cloudy,0,2013-05-09 12:53:00
5:53 AM,34.0,32.0,92,30.26,10.0,Calm,Calm,-,N/A,,Scattered Clouds,0,2013-05-09 13:53:00
6:53 AM,41.0,36.0,82,30.27,10.0,Calm,Calm,-,N/A,,Mostly Cloudy,0,2013-05-09 14:53:00
7:53 AM,44.1,35.1,71,30.28,10.0,Calm,Calm,-,N/A,,Mostly Cloudy,0,2013-05-09 15:53:00
8:53 AM,48.2,35.6,62,30.28,10.0,West,3.5,-,N/A,,Mostly Cloudy,260,2013-05-09 16:53:00
9:53 AM,50.0,36.0,59,30.28,10.0,WSW,6.9,-,N/A,,Mostly Cloudy,240,2013-05-09 17:53:00
10:53 AM,52.0,35.1,53,30.29,10.0,WSW,9.2,-,N/A,,Mostly Cloudy,240,2013-05-09 18:53:00
11:53 AM,55.0,34.0,45,30.29,10.0,WSW,9.2,-,N/A,,Overcast,250,2013-05-09 19:53:00
12:53 PM,57.0,34.0,42,30.28,10.0,WSW,9.2,-,N/A,,Overcast,250,2013-05-09 20:53:00
1:53 PM,57.9,36.0,44,30.28,10.0,WSW,9.2,-,N/A,,Overcast,250,2013-05-09 21:53:00
2:53 PM,61.0,34.0,36,30.27,10.0,WSW,8.1,-,N/A,,Overcast,250,2013-05-09 22:53:00
3:53 PM,64.4,32.0,30,30.25,10.0,West,6.9,-,N/A,,Overcast,260,2013-05-09 23:53:00
4:53 PM,64.0,33.1,31,30.24,10.0,West,4.6,-,N/A,,Overcast,270,2013-05-10 00:53:00
5:53 PM,64.0,32.0,30,30.23,10.0,West,4.6,-,N/A,,Overcast,270,2013-05-10 01:53:00
6:53 PM,60.1,37.9,44,30.22,10.0,WSW,5.8,-,N/A,,Overcast,250,2013-05-10 02:53:00
7:53 PM,55.9,37.9,51,30.22,10.0,WSW,4.6,-,N/A,,Overcast,250,2013-05-10 03:53:00
8:53 PM,50.0,37.4,62,30.23,10.0,East,5.8,-,N/A,,Overcast,100,2013-05-10 04:53:00
9:53 PM,45.0,39.0,80,30.23,10.0,East,3.5,-,N/A,,Overcast,90,2013-05-10 05:53:00
10:53 PM,44.1,37.0,76,30.23,10.0,Calm,Calm,-,N/A,,Mostly Cloudy,0,2013-05-10 06:53:00
11:53 PM,42.1,37.0,82,30.24,10.0,Calm,Calm,-,N/A,,Scattered Clouds,0,2013-05-10 07:53:00